createdAt,value
2018-07-05T00:02:19.600Z,4.87
2018-07-05T00:04:58.585Z,4.60
2018-07-05T00:07:37.462Z,4.53
2018-07-05T00:10:16.384Z,4.00
2018-07-05T00:12:55.345Z,4.55
2018-07-05T00:15:34.246Z,3.70
2018-07-05T00:18:13.180Z,3.65
2018-07-05T00:20:52.144Z,3.70
2018-07-05T00:23:31.230Z,3.77
2018-07-05T00:26:10.221Z,3.13
2018-07-05T00:28:49.209Z,3.30
2018-07-05T00:31:27.996Z,2.80
2018-07-05T00:34:07.130Z,2.90
2018-07-05T00:36:46.148Z,3.02
2018-07-05T00:39:25.165Z,3.52
2018-07-05T00:42:04.226Z,3.15
2018-07-05T00:44:43.075Z,3.10
2018-07-05T00:47:22.162Z,3.10
2018-07-05T00:50:01.202Z,3.00
2018-07-05T00:52:40.073Z,2.85
2018-07-05T00:55:19.309Z,2.83
2018-07-05T00:57:58.212Z,2.95
2018-07-05T01:00:37.098Z,2.30
2018-07-05T01:03:16.007Z,2.47
2018-07-05T01:05:54.895Z,2.90
2018-07-05T01:08:34.018Z,2.30
2018-07-05T01:11:13.112Z,2.52
2018-07-05T01:13:52.000Z,2.70
2018-07-05T01:16:30.994Z,3.35
2018-07-05T01:19:09.863Z,2.60
2018-07-05T01:21:48.796Z,2.47
2018-07-05T01:24:27.780Z,2.47
2018-07-05T01:27:06.702Z,2.65
2018-07-05T01:29:45.774Z,2.87
2018-07-05T01:32:24.624Z,2.52
2018-07-05T01:35:03.529Z,2.70
2018-07-05T01:37:42.440Z,2.67
2018-07-05T01:40:21.376Z,2.47
2018-07-05T01:43:00.346Z,2.52
2018-07-05T01:45:39.398Z,2.87
2018-07-05T01:48:18.303Z,2.50
2018-07-05T01:50:57.302Z,2.30
2018-07-05T01:53:36.270Z,2.85
2018-07-05T01:56:15.354Z,2.35
2018-07-05T01:58:54.176Z,2.72
2018-07-05T02:01:33.204Z,3.20
2018-07-05T02:04:12.136Z,2.20
2018-07-05T02:06:51.068Z,3.60
2018-07-05T02:09:30.107Z,2.75
2018-07-05T02:12:09.139Z,2.40
2018-07-05T02:14:48.097Z,2.60
2018-07-05T02:17:27.122Z,2.55
2018-07-05T02:20:06.014Z,2.70
2018-07-05T02:22:45.012Z,2.80
2018-07-05T02:25:23.892Z,2.62
2018-07-05T02:28:02.826Z,2.90
2018-07-05T02:30:41.991Z,2.90
2018-07-05T02:33:20.914Z,2.95
2018-07-05T02:35:59.806Z,2.58
2018-07-05T02:38:38.741Z,2.75
2018-07-05T02:41:17.722Z,2.35
2018-07-05T02:43:56.538Z,2.70
2018-07-05T02:46:35.580Z,2.70
2018-07-05T02:49:14.433Z,2.42
2018-07-05T02:51:53.352Z,3.02
2018-07-05T02:54:32.378Z,2.40
2018-07-05T02:57:11.567Z,2.70
2018-07-05T02:59:50.542Z,2.17
2018-07-05T03:02:29.496Z,2.77
2018-07-05T03:05:08.472Z,2.77
2018-07-05T03:07:47.462Z,2.40
2018-07-05T03:10:26.457Z,2.60
2018-07-05T03:13:05.450Z,3.00
2018-07-05T03:15:44.378Z,2.90
2018-07-05T03:18:23.276Z,2.60
2018-07-05T03:21:02.245Z,2.50
2018-07-05T03:23:41.213Z,2.85
2018-07-05T03:26:20.158Z,2.70
2018-07-05T03:28:59.143Z,3.05
2018-07-05T03:31:38.118Z,2.40
2018-07-05T03:34:17.078Z,3.12
2018-07-05T03:36:56.105Z,2.90
2018-07-05T03:39:35.106Z,2.72
2018-07-05T03:42:13.981Z,2.90
2018-07-05T03:44:53.086Z,3.00
2018-07-05T03:47:31.987Z,3.10
2018-07-05T03:50:10.890Z,2.60
2018-07-05T03:52:49.902Z,2.62
2018-07-05T03:55:28.812Z,3.08
2018-07-05T03:58:07.896Z,2.70
2018-07-05T04:00:46.771Z,2.92
2018-07-05T04:03:25.783Z,2.22
2018-07-05T04:06:04.658Z,3.37
2018-07-05T04:08:43.704Z,2.67
2018-07-05T04:11:22.702Z,2.80
2018-07-05T04:14:01.597Z,2.55
2018-07-05T04:16:40.586Z,3.42
2018-07-05T04:19:19.590Z,3.25
2018-07-05T04:21:58.472Z,2.77
2018-07-05T04:24:37.527Z,2.60
2018-07-05T04:27:16.534Z,3.08
2018-07-05T04:29:55.410Z,2.98
2018-07-05T04:32:34.488Z,3.37
2018-07-05T04:35:13.453Z,3.12
2018-07-05T04:37:52.543Z,3.02
2018-07-05T04:40:31.497Z,2.92
2018-07-05T04:43:10.381Z,3.30
2018-07-05T04:45:49.317Z,3.98
2018-07-05T04:48:28.334Z,3.62
2018-07-05T04:51:07.256Z,3.98
2018-07-05T04:53:46.168Z,3.75
2018-07-05T04:56:25.122Z,3.65
2018-07-05T04:59:03.990Z,2.98
2018-07-05T05:01:43.030Z,3.17
2018-07-05T05:04:22.115Z,2.90
2018-07-05T05:07:01.274Z,3.87
2018-07-05T05:09:40.339Z,2.52
2018-07-05T05:12:19.289Z,3.73
2018-07-05T05:14:58.300Z,3.10
2018-07-05T05:17:31.505Z,2.98
2018-07-05T05:20:10.313Z,3.10
2018-07-05T05:22:49.329Z,2.97
2018-07-05T05:25:28.244Z,3.60
2018-07-05T05:28:07.314Z,3.50
2018-07-05T05:30:46.313Z,3.53
2018-07-05T05:33:25.228Z,3.47
2018-07-05T05:36:04.219Z,2.87
2018-07-05T05:38:43.197Z,2.97
2018-07-05T05:41:22.114Z,3.10
2018-07-05T05:44:01.032Z,2.90
2018-07-05T05:46:40.062Z,3.10
2018-07-05T05:49:19.006Z,3.23
2018-07-05T05:51:57.998Z,2.70
2018-07-05T05:54:36.918Z,3.33
2018-07-05T05:57:15.902Z,3.10
2018-07-05T05:59:54.968Z,3.00
2018-07-05T06:02:33.998Z,3.40
2018-07-05T06:05:12.980Z,2.80
2018-07-05T06:07:52.082Z,2.60
2018-07-05T06:10:31.261Z,2.60
2018-07-05T06:13:10.164Z,3.87
2018-07-05T06:15:49.025Z,4.00
2018-07-05T06:18:28.034Z,3.70
2018-07-05T06:21:06.885Z,3.03
2018-07-05T06:23:45.870Z,3.03
2018-07-05T06:26:24.746Z,2.80
2018-07-05T06:29:03.749Z,3.63
2018-07-05T06:31:43.762Z,4.03
2018-07-05T06:34:22.862Z,3.80
2018-07-05T06:37:01.722Z,4.10
2018-07-05T06:39:40.727Z,4.20
2018-07-05T06:42:19.573Z,3.10
2018-07-05T06:44:58.482Z,3.10
2018-07-05T06:47:37.569Z,7.60
2018-07-05T06:50:16.520Z,6.60
2018-07-05T06:52:55.498Z,3.77
2018-07-05T06:55:34.422Z,3.03
2018-07-05T06:58:13.423Z,3.20
2018-07-05T07:00:52.312Z,2.90
2018-07-05T07:03:31.190Z,3.13
2018-07-05T07:06:10.134Z,3.47
2018-07-05T07:08:49.105Z,3.00
2018-07-05T07:11:28.039Z,2.80
2018-07-05T07:14:06.982Z,3.23
2018-07-05T07:16:45.944Z,2.40
2018-07-05T07:19:24.786Z,3.00
2018-07-05T07:22:03.748Z,2.70
2018-07-05T07:24:42.834Z,2.90
2018-07-05T07:27:21.778Z,2.50
2018-07-05T07:30:00.887Z,2.43
2018-07-05T07:32:39.796Z,2.67
2018-07-05T07:35:18.854Z,2.90
2018-07-05T07:37:57.782Z,2.30
2018-07-05T07:40:36.714Z,2.23
2018-07-05T07:43:03.230Z,2.10
2018-07-05T07:45:29.851Z,2.67
2018-07-05T07:47:56.332Z,2.50
2018-07-05T07:50:22.874Z,2.47
2018-07-05T07:52:49.406Z,2.10
2018-07-05T07:55:15.941Z,2.23
2018-07-05T07:57:42.464Z,2.50
2018-07-05T08:00:09.034Z,2.03
2018-07-05T08:02:35.566Z,2.60
2018-07-05T08:05:02.094Z,2.33
2018-07-05T08:07:28.634Z,2.10
2018-07-05T08:09:55.181Z,1.90
2018-07-05T08:12:21.745Z,1.93
2018-07-05T08:14:48.248Z,2.30
2018-07-05T08:17:14.831Z,2.40
2018-07-05T08:19:41.340Z,2.07
2018-07-05T08:22:07.865Z,2.50
2018-07-05T08:24:34.395Z,2.23
2018-07-05T08:27:02.994Z,2.20
2018-07-05T08:29:29.542Z,2.10
2018-07-05T08:31:56.077Z,2.20
2018-07-05T08:34:22.600Z,2.10
2018-07-05T08:36:49.115Z,2.00
2018-07-05T08:39:15.631Z,2.33
2018-07-05T08:41:42.152Z,2.30
2018-07-05T08:44:08.665Z,2.47
2018-07-05T08:46:35.178Z,2.53
2018-07-05T08:49:01.684Z,2.00
2018-07-05T08:51:28.218Z,2.57
2018-07-05T08:53:54.733Z,2.00
2018-07-05T08:56:21.257Z,2.10
2018-07-05T08:58:47.798Z,2.40
2018-07-05T09:01:14.317Z,2.40
2018-07-05T09:03:40.845Z,2.37
2018-07-05T09:06:07.371Z,2.00
2018-07-05T09:08:33.946Z,2.20
2018-07-05T09:11:00.458Z,2.23
2018-07-05T09:13:27.003Z,2.50
2018-07-05T09:15:53.526Z,2.33
2018-07-05T09:18:20.397Z,2.50
2018-07-05T09:20:46.969Z,2.87
2018-07-05T09:23:13.543Z,2.00
2018-07-05T09:25:40.070Z,2.53
2018-07-05T09:28:06.602Z,2.13
2018-07-05T09:30:33.137Z,2.00
2018-07-05T09:32:59.711Z,2.67
2018-07-05T09:35:26.288Z,2.20
2018-07-05T09:37:52.826Z,2.13
2018-07-05T09:40:19.340Z,2.90
2018-07-05T09:42:45.859Z,1.90
2018-07-05T09:45:12.626Z,1.97
2018-07-05T09:47:39.177Z,2.10
2018-07-05T09:50:05.722Z,2.40
2018-07-05T09:52:32.380Z,2.37
2018-07-05T09:54:58.899Z,2.27
2018-07-05T09:57:25.462Z,2.23
2018-07-05T09:59:52.086Z,2.07
2018-07-05T10:02:18.594Z,1.97
2018-07-05T10:04:45.185Z,1.90
2018-07-05T10:07:11.734Z,2.00
2018-07-05T10:09:38.278Z,2.00
2018-07-05T10:12:04.808Z,2.03
2018-07-05T10:14:31.374Z,2.03
2018-07-05T10:16:57.922Z,2.00
2018-07-05T10:19:24.560Z,1.80
2018-07-05T10:21:51.091Z,1.90
2018-07-05T10:24:17.677Z,2.70
2018-07-05T10:26:44.243Z,2.20
2018-07-05T10:29:23.225Z,1.87
2018-07-05T10:32:03.122Z,2.27
2018-07-05T10:34:29.650Z,2.43
2018-07-05T10:36:56.177Z,2.00
2018-07-05T10:39:22.741Z,2.20
2018-07-05T10:42:01.707Z,2.13
2018-07-05T10:44:40.587Z,2.20
2018-07-05T10:47:19.463Z,2.10
2018-07-05T10:49:58.346Z,2.37
2018-07-05T10:52:37.331Z,2.10
2018-07-05T10:55:16.423Z,1.70
2018-07-05T10:57:55.270Z,1.83
2018-07-05T11:00:34.188Z,2.67
2018-07-05T11:03:13.096Z,1.90
2018-07-05T11:05:52.093Z,2.50
2018-07-05T11:08:31.002Z,2.00
2018-07-05T11:11:09.854Z,2.03
2018-07-05T11:13:48.755Z,2.17
2018-07-05T11:16:27.906Z,2.33
2018-07-05T11:19:06.950Z,2.07
2018-07-05T11:21:45.908Z,1.93
2018-07-05T11:24:24.838Z,2.10
2018-07-05T11:27:03.790Z,2.47
2018-07-05T11:29:42.670Z,2.07
2018-07-05T11:32:21.846Z,2.20
2018-07-05T11:35:00.851Z,2.20
2018-07-05T11:37:40.017Z,1.90
2018-07-05T11:40:18.988Z,2.00
2018-07-05T11:42:58.548Z,2.37
2018-07-05T11:45:37.569Z,2.30
2018-07-05T11:48:16.572Z,1.90
2018-07-05T11:50:55.522Z,1.80
2018-07-05T11:53:34.529Z,2.37
2018-07-05T11:56:13.587Z,1.97
2018-07-05T11:58:52.508Z,1.93
2018-07-05T12:01:31.512Z,2.03
2018-07-05T12:04:10.455Z,2.40
2018-07-05T12:06:49.510Z,2.47
2018-07-05T12:09:28.402Z,1.90
2018-07-05T12:12:07.309Z,2.07
2018-07-05T12:14:46.263Z,2.10
2018-07-05T12:17:25.274Z,2.23
2018-07-05T12:20:04.366Z,2.17
2018-07-05T12:22:43.357Z,2.37
2018-07-05T12:25:22.355Z,2.13
2018-07-05T12:28:01.242Z,1.83
2018-07-05T12:30:40.466Z,2.17
2018-07-05T12:33:19.530Z,2.47
2018-07-05T12:35:58.563Z,2.40
2018-07-05T12:38:37.542Z,1.87
2018-07-05T12:41:16.608Z,2.17
2018-07-05T12:43:55.705Z,2.17
2018-07-05T12:46:34.737Z,2.10
2018-07-05T12:49:13.605Z,2.07
2018-07-05T12:51:52.620Z,2.10
2018-07-05T12:54:31.574Z,2.00
2018-07-05T12:57:11.502Z,2.13
2018-07-05T12:59:50.521Z,2.03
2018-07-05T13:02:31.854Z,2.23
2018-07-05T13:05:10.761Z,1.90
2018-07-05T13:07:49.685Z,2.50
2018-07-05T13:10:28.857Z,2.07
2018-07-05T13:13:08.670Z,2.30
2018-07-05T13:15:47.697Z,2.77
2018-07-05T13:18:26.702Z,1.93
2018-07-05T13:21:05.732Z,2.23
2018-07-05T13:23:44.672Z,2.17
2018-07-05T13:26:23.653Z,2.43
2018-07-05T13:29:02.734Z,2.63
2018-07-05T13:31:41.633Z,2.23
2018-07-05T13:34:20.760Z,2.30
2018-07-05T13:36:59.746Z,1.80
2018-07-05T13:39:38.835Z,2.07
2018-07-05T13:42:17.888Z,2.37
2018-07-05T13:44:56.734Z,2.60
2018-07-05T13:47:35.726Z,3.77
2018-07-05T13:50:14.822Z,2.50
2018-07-05T13:52:53.754Z,2.30
2018-07-05T13:55:32.709Z,2.10
2018-07-05T13:58:11.683Z,2.67
2018-07-05T14:00:50.624Z,3.70
2018-07-05T14:03:29.490Z,3.20
2018-07-05T14:06:08.476Z,2.00
2018-07-05T14:08:47.567Z,2.60
2018-07-05T14:11:26.434Z,2.80
2018-07-05T14:14:05.353Z,2.23
2018-07-05T14:16:44.366Z,2.40
2018-07-05T14:19:23.512Z,2.20
2018-07-05T14:22:02.605Z,2.30
2018-07-05T14:24:41.778Z,2.30
2018-07-05T14:27:20.698Z,2.00
2018-07-05T14:29:59.781Z,1.93
2018-07-05T14:32:38.814Z,2.03
2018-07-05T14:35:17.852Z,1.80
2018-07-05T14:37:56.669Z,2.67
2018-07-05T14:40:35.594Z,1.90
2018-07-05T14:43:14.525Z,2.20
2018-07-05T14:45:53.487Z,2.40
2018-07-05T14:48:32.468Z,2.30
2018-07-05T14:51:11.590Z,1.83
2018-07-05T14:53:50.566Z,2.23
2018-07-05T14:56:29.605Z,1.97
2018-07-05T14:59:08.540Z,2.30
2018-07-05T15:01:47.634Z,2.20
2018-07-05T15:04:26.762Z,2.30
2018-07-05T15:07:05.782Z,2.13
2018-07-05T15:09:44.763Z,2.67
2018-07-05T15:12:23.866Z,2.10
2018-07-05T15:15:02.849Z,2.20
2018-07-05T15:17:41.912Z,2.40
2018-07-05T15:20:20.841Z,2.20
2018-07-05T15:22:59.954Z,2.27
2018-07-05T15:25:38.963Z,2.53
2018-07-05T15:28:17.871Z,2.33
2018-07-05T15:30:56.762Z,2.23
2018-07-05T15:33:35.702Z,2.30
2018-07-05T15:36:14.656Z,2.30
2018-07-05T15:38:53.624Z,2.27
2018-07-05T15:41:32.542Z,2.37
2018-07-05T15:44:11.558Z,2.37
2018-07-05T15:46:50.501Z,2.40
2018-07-05T15:49:29.348Z,2.03
2018-07-05T15:52:08.394Z,2.40
2018-07-05T15:54:47.462Z,2.40
2018-07-05T15:57:27.282Z,2.37
2018-07-05T16:00:06.338Z,2.70
2018-07-05T16:02:45.536Z,2.87
2018-07-05T16:05:24.674Z,2.57
2018-07-05T16:08:03.755Z,2.70
2018-07-05T16:10:42.766Z,2.77
2018-07-05T16:13:21.825Z,2.60
2018-07-05T16:16:00.878Z,2.77
2018-07-05T16:18:39.813Z,2.93
2018-07-05T16:21:19.019Z,2.43
2018-07-05T16:23:58.222Z,2.57
2018-07-05T16:26:37.500Z,2.47
2018-07-05T16:29:16.649Z,2.53
2018-07-05T16:31:55.819Z,2.60
2018-07-05T16:34:34.816Z,2.10
2018-07-05T16:37:13.851Z,2.13
2018-07-05T16:39:52.846Z,2.03
2018-07-05T16:42:32.106Z,2.13
2018-07-05T16:45:11.457Z,2.00
2018-07-05T16:47:50.621Z,2.30
2018-07-05T16:50:29.640Z,2.27
2018-07-05T16:53:08.704Z,2.33
2018-07-05T16:55:47.805Z,2.83
2018-07-05T16:58:26.859Z,2.50
2018-07-05T17:01:06.008Z,1.90
2018-07-05T17:03:45.129Z,2.50
2018-07-05T17:06:24.291Z,2.33
2018-07-05T17:09:04.431Z,2.60
2018-07-05T17:11:43.467Z,2.50
2018-07-05T17:14:22.615Z,2.67
2018-07-05T17:17:01.690Z,2.43
2018-07-05T17:19:40.843Z,2.20
2018-07-05T17:22:19.822Z,2.33
2018-07-05T17:24:58.759Z,2.10
2018-07-05T17:27:37.702Z,2.50
2018-07-05T17:30:16.797Z,2.03
2018-07-05T17:32:55.865Z,1.97
2018-07-05T17:35:35.037Z,2.00
2018-07-05T17:38:13.821Z,2.23
2018-07-05T17:40:52.814Z,2.60
2018-07-05T17:43:31.917Z,2.57
2018-07-05T17:46:11.207Z,1.93
2018-07-05T17:48:50.302Z,2.40
2018-07-05T17:51:29.415Z,2.77
2018-07-05T17:54:08.472Z,3.03
2018-07-05T17:56:47.990Z,3.53
2018-07-05T17:59:27.368Z,2.67
2018-07-05T18:02:06.455Z,4.10
2018-07-05T18:04:45.316Z,3.10
2018-07-05T18:07:24.309Z,3.03
2018-07-05T18:10:03.380Z,3.50
2018-07-05T18:12:42.315Z,3.30
2018-07-05T18:15:21.434Z,3.10
2018-07-05T18:18:00.513Z,3.00
2018-07-05T18:20:39.638Z,3.50
2018-07-05T18:23:18.615Z,3.40
2018-07-05T18:25:57.612Z,3.37
2018-07-05T18:28:36.483Z,3.50
2018-07-05T18:31:15.387Z,3.60
2018-07-05T18:33:54.447Z,3.67
2018-07-05T18:36:33.355Z,3.70
2018-07-05T18:39:12.274Z,4.20
2018-07-05T18:41:51.218Z,3.50
2018-07-05T18:44:30.157Z,3.70
2018-07-05T18:47:09.238Z,3.70
2018-07-05T18:49:48.166Z,3.70
2018-07-05T18:52:27.122Z,3.60
2018-07-05T18:55:06.050Z,3.37
2018-07-05T18:57:44.955Z,3.10
2018-07-05T19:00:23.819Z,3.60
2018-07-05T19:03:02.847Z,3.70
2018-07-05T19:05:41.870Z,3.60
2018-07-05T19:08:20.766Z,3.60
2018-07-05T19:10:59.722Z,4.00
2018-07-05T19:13:38.625Z,3.97
2018-07-05T19:16:17.616Z,3.90
2018-07-05T19:18:56.717Z,4.50
2018-07-05T19:21:36.206Z,3.50
2018-07-05T19:24:15.280Z,4.00
2018-07-05T19:26:54.243Z,4.10
2018-07-05T19:29:33.243Z,3.77
2018-07-05T19:32:12.338Z,4.23
2018-07-05T19:34:51.226Z,3.50
2018-07-05T19:37:30.170Z,3.70
2018-07-05T19:40:09.108Z,3.50
2018-07-05T19:42:48.112Z,4.10
2018-07-05T19:45:27.196Z,4.20
2018-07-05T19:48:06.297Z,4.23
2018-07-05T19:50:45.245Z,3.63
2018-07-05T19:53:24.310Z,3.80
2018-07-05T19:56:03.237Z,4.43
2018-07-05T19:58:42.199Z,4.50
2018-07-05T20:01:21.099Z,4.80
2018-07-05T20:04:00.151Z,4.40
2018-07-05T20:06:39.093Z,4.23
2018-07-05T20:09:18.094Z,5.60
2018-07-05T20:12:02.788Z,5.63
2018-07-05T20:14:41.830Z,5.50
2018-07-05T20:17:20.826Z,5.63
2018-07-05T20:20:00.013Z,5.40
2018-07-05T20:22:39.151Z,5.80
2018-07-05T20:25:18.100Z,5.80
2018-07-05T20:27:57.076Z,5.73
2018-07-05T20:30:36.021Z,5.70
2018-07-05T20:33:09.898Z,6.30
2018-07-05T20:35:49.164Z,6.37
2018-07-05T20:38:27.976Z,5.20
2018-07-05T20:41:07.158Z,5.77
2018-07-05T20:43:46.198Z,5.80
2018-07-05T20:46:25.917Z,5.63
2018-07-05T20:49:05.010Z,5.80
2018-07-05T20:51:43.979Z,5.50
2018-07-05T20:54:22.902Z,6.00
2018-07-05T20:57:01.890Z,5.97
2018-07-05T20:59:40.894Z,5.20
2018-07-05T21:02:19.874Z,5.83
2018-07-05T21:04:58.850Z,5.93
2018-07-05T21:07:37.840Z,5.90
2018-07-05T21:10:16.802Z,6.07
2018-07-05T21:12:55.644Z,6.60
2018-07-05T21:15:34.782Z,6.37
2018-07-05T21:18:13.693Z,6.97
2018-07-05T21:20:52.673Z,7.00
2018-07-05T21:23:31.586Z,7.20
2018-07-05T21:26:10.572Z,6.67
2018-07-05T21:28:49.556Z,6.60
2018-07-05T21:31:22.798Z,7.00
2018-07-05T21:34:01.768Z,7.00
2018-07-05T21:36:40.736Z,7.00
2018-07-05T21:39:19.753Z,9.17
2018-07-05T21:41:58.875Z,8.60
2018-07-05T21:44:37.911Z,8.10
2018-07-05T21:47:16.940Z,6.70
2018-07-05T21:49:56.028Z,7.20
2018-07-05T21:52:35.172Z,6.90
2018-07-05T21:55:14.260Z,7.60
2018-07-05T21:57:53.216Z,6.93
2018-07-05T22:00:32.147Z,6.70
2018-07-05T22:03:11.193Z,6.87
2018-07-05T22:05:50.109Z,6.93
2018-07-05T22:08:29.040Z,8.53
2018-07-05T22:11:08.084Z,8.40
2018-07-05T22:13:47.057Z,9.50
2018-07-05T22:16:26.116Z,8.50
2018-07-05T22:19:10.965Z,9.80
2018-07-05T22:21:55.852Z,8.40
2018-07-05T22:24:40.675Z,8.80
2018-07-05T22:27:25.488Z,8.65
2018-07-05T22:30:10.241Z,9.03
2018-07-05T22:32:49.267Z,8.80
2018-07-05T22:35:28.386Z,9.50
2018-07-05T22:38:07.379Z,8.60
2018-07-05T22:40:46.415Z,9.50
2018-07-05T22:43:25.336Z,8.10
2018-07-05T22:46:04.276Z,9.33
2018-07-05T22:48:43.269Z,7.60
2018-07-05T22:51:22.322Z,8.33
2018-07-05T22:54:01.324Z,8.23
2018-07-05T22:56:40.508Z,7.80
2018-07-05T22:59:19.511Z,8.07
2018-07-05T23:01:58.500Z,7.87
2018-07-05T23:04:37.564Z,8.60
2018-07-05T23:07:16.600Z,9.43
2018-07-05T23:09:55.597Z,9.10
2018-07-05T23:12:34.612Z,8.83
2018-07-05T23:15:13.628Z,9.23
2018-07-05T23:17:52.669Z,8.23
2018-07-05T23:20:31.780Z,8.20
2018-07-05T23:23:10.719Z,7.80
2018-07-05T23:25:49.717Z,8.03
2018-07-05T23:28:28.757Z,8.83
2018-07-05T23:31:07.800Z,9.60
2018-07-05T23:33:46.921Z,8.93
2018-07-05T23:36:25.908Z,8.60
2018-07-05T23:39:05.296Z,7.70
2018-07-05T23:41:44.293Z,9.43
2018-07-05T23:44:23.403Z,8.57
2018-07-05T23:47:02.513Z,9.13
2018-07-05T23:49:41.364Z,8.97
2018-07-05T23:52:20.401Z,8.78
2018-07-05T23:54:59.420Z,9.67
2018-07-05T23:57:38.456Z,8.40
